Time;durP1;ratioP1;P1;durP2;ratioP2;P2;SDS_P1;SDS_P2;PMS_P1;PMS_P2;Temp;Humidity;BMP_temperature;BMP_pressure;BME280_temperature;BME280_humidity;BME280_pressure;Samples;Min_cycle;Max_cycle;Signal;HPM_P1;HPM_P2
2023/01/13 00:01:06;;;;;;;6.32;1.23;;;;;;;13.16;62.48;100336.88;4966257;28;115372;-68
2023/01/13 00:03:34;;;;;;;10.23;1.58;;;;;;;13.16;62.48;100336.88;4957482;28;114971;-68
2023/01/13 00:06:02;;;;;;;7.50;1.52;;;;;;;13.14;62.49;100349.41;4965995;28;124148;-69
2023/01/13 00:08:30;;;;;;;8.10;1.77;;;;;;;13.12;62.34;100346.84;4966438;28;123563;-68
2023/01/13 00:10:57;;;;;;;10.00;1.75;;;;;;;13.11;62.20;100344.28;4968219;28;114285;-68
2023/01/13 00:13:27;;;;;;;7.30;1.98;;;;;;;13.09;62.17;100343.50;4963293;28;114431;-69
2023/01/13 00:15:59;;;;;;;9.30;2.08;;;;;;;13.05;61.88;100341.06;4962047;28;124075;-69
2023/01/13 00:18:27;;;;;;;10.85;1.80;;;;;;;13.04;61.98;100335.84;4966911;28;123952;-68
2023/01/13 00:21:00;;;;;;;10.70;2.05;;;;;;;13.00;62.00;100343.16;4964929;28;114238;-68
2023/01/13 00:23:29;;;;;;;12.60;1.80;;;;;;;12.98;62.01;100345.06;4963787;28;113503;-68
2023/01/13 00:25:58;;;;;;;11.40;2.28;;;;;;;12.98;61.99;100345.06;4965232;28;123884;-69
2023/01/13 00:28:25;;;;;;;9.90;1.77;;;;;;;12.95;61.93;100329.28;4965621;28;123899;-68
2023/01/13 00:30:55;;;;;;;18.08;2.40;;;;;;;12.95;61.79;100323.97;4961799;28;114352;-68
2023/01/13 00:33:22;;;;;;;12.50;2.03;;;;;;;12.94;61.83;100322.28;4967443;28;113705;-69
2023/01/13 00:36:00;;;;;;;11.77;2.03;;;;;;;12.91;61.62;100314.50;4967550;28;124783;-68
2023/01/13 00:38:27;;;;;;;13.13;2.20;;;;;;;12.88;61.70;100317.34;4957760;28;123750;-68
2023/01/13 00:41:02;;;;;;;10.02;1.85;;;;;;;12.86;61.67;100324.56;4950923;28;115014;-69
2023/01/13 00:43:31;;;;;;;;;;;;;;;12.82;61.73;100328.38;4966847;28;113499;-68
2023/01/13 00:45:59;;;;;;;13.27;1.95;;;;;;;12.78;61.59;100316.22;4965640;28;124326;-68
2023/01/13 00:48:26;;;;;;;9.85;2.00;;;;;;;12.75;61.61;100311.09;4965017;28;124320;-69
2023/01/13 00:51:07;;;;;;;9.60;2.00;;;;;;;12.70;61.57;100302.56;4964834;28;115549;-69
2023/01/13 00:53:36;;;;;;;8.65;1.70;;;;;;;12.66;61.28;100297.44;4960906;28;115103;-69
2023/01/13 00:56:06;;;;;;;13.10;1.65;;;;;;;12.65;61.44;100306.34;4962114;28;124812;-68
2023/01/13 00:58:35;;;;;;;11.88;2.35;;;;;;;12.62;61.19;100311.00;4961501;28;124276;-69
2023/01/13 01:01:14;;;;;;;11.70;2.08;;;;;;;12.58;61.08;100317.47;4967076;28;114221;-68
2023/01/13 01:03:42;;;;;;;12.27;2.35;;;;;;;12.58;61.17;100331.63;4962463;28;115019;-68
2023/01/13 01:06:15;;;;;;;14.00;2.20;;;;;;;12.54;61.00;100319.44;4965147;28;124633;-68
2023/01/13 01:08:43;;;;;;;13.25;1.88;;;;;;;12.53;61.09;100322.22;4960703;28;124143;-68
2023/01/13 01:11:12;;;;;;;12.95;2.10;;;;;;;12.48;60.94;100317.19;4965083;28;113274;-69
2023/01/13 01:13:40;;;;;;;12.60;2.00;;;;;;;12.46;60.91;100317.25;4967912;28;114599;-68
2023/01/13 01:16:15;;;;;;;12.60;2.05;;;;;;;12.44;60.92;100320.97;4947218;28;125008;-69
2023/01/13 01:18:45;;;;;;;15.00;2.13;;;;;;;12.41;60.71;100324.69;4961115;28;124368;-69
2023/01/13 01:21:13;;;;;;;15.50;2.17;;;;;;;12.40;60.99;100322.13;4956682;28;115756;-69
2023/01/13 01:23:41;;;;;;;15.85;2.20;;;;;;;12.40;60.90;100324.78;4965865;28;114344;-68
2023/01/13 01:26:14;;;;;;;14.32;2.80;;;;;;;12.38;60.83;100331.97;4963415;28;125158;-69
2023/01/13 01:28:42;;;;;;;14.23;2.60;;;;;;;12.39;60.96;100341.63;4963604;28;124142;-68
2023/01/13 01:31:14;;;;;;;13.73;2.45;;;;;;;12.38;60.93;100335.47;4965195;28;113929;-68
2023/01/13 01:33:41;;;;;;;18.00;2.53;;;;;;;12.38;60.86;100329.31;4965424;28;113768;-68
2023/01/13 01:36:11;;;;;;;15.55;2.33;;;;;;;12.38;60.92;100345.25;4964126;28;124757;-68
2023/01/13 01:38:38;;;;;;;15.70;2.03;;;;;;;12.38;61.06;100334.63;4964518;28;123765;-68
2023/01/13 01:41:06;;;;;;;20.25;2.40;;;;;;;12.39;61.04;100328.34;4966611;28;115026;-68
2023/01/13 01:44:06;;;;;;;12.15;2.38;;;;;;;12.39;60.99;100331.84;4959709;28;115369;-68
2023/01/13 01:46:38;;;;;;;16.75;2.75;;;;;;;12.40;60.93;100335.38;4955624;28;124296;-68
2023/01/13 01:49:30;;;;;;;17.80;2.20;;;;;;;12.37;60.93;100332.91;4964715;28;123736;-68
2023/01/13 01:52:02;;;;;;;13.43;2.58;;;;;;;12.37;60.83;100322.28;4962596;28;114772;-68
2023/01/13 01:54:38;;;;;;;12.52;1.95;;;;;;;12.35;60.90;100329.50;4964767;28;113492;-68
2023/01/13 01:57:10;;;;;;;11.05;2.15;;;;;;;12.33;60.89;100331.41;4961567;28;126711;-68
2023/01/13 01:59:38;;;;;;;16.55;2.95;;;;;;;12.31;60.83;100328.81;4958168;28;124729;-68
2023/01/13 02:02:06;;;;;;;18.38;2.65;;;;;;;12.31;60.94;100327.97;4978356;28;114249;-69
2023/01/13 02:04:39;;;;;;;16.25;2.55;;;;;;;12.28;60.70;100318.38;4967752;28;114796;-68
2023/01/13 02:07:07;;;;;;;16.42;2.35;;;;;;;12.27;60.85;100322.84;4964123;28;122196;-69
2023/01/13 02:09:35;;;;;;;13.75;2.55;;;;;;;12.27;60.65;100328.16;4969583;28;124835;-68
2023/01/13 02:14:48;;;;;;;12.15;2.38;;;;;;;12.23;60.51;100326.63;4946940;28;115561;-68
2023/01/13 02:17:32;;;;;;;12.55;2.55;;;;;;;12.22;60.47;100319.63;4968630;28;124378;-68
2023/01/13 02:20:37;;;;;;;16.00;2.50;;;;;;;12.21;60.37;100317.06;4966659;28;124245;-68
2023/01/13 02:26:55;;;;;;;15.68;2.60;;;;;;;12.14;60.47;100313.91;4965396;28;114202;-68
2023/01/13 02:32:43;;;;;;;20.48;2.53;;;;;;;12.10;60.10;100309.75;4965482;28;123582;-68
2023/01/13 02:35:25;;;;;;;20.67;3.70;;;;;;;12.08;60.03;100316.94;4966105;28;115395;-69
2023/01/13 02:37:54;;;;;;;15.57;2.78;;;;;;;12.07;60.00;100328.50;4961236;28;115011;-68
2023/01/13 02:40:32;;;;;;;17.92;2.47;;;;;;;12.05;59.70;100327.72;4969973;28;124001;-68
2023/01/13 02:46:21;;;;;;;16.20;2.65;;;;;;;12.00;59.55;100324.53;4966296;28;114472;-68
2023/01/13 02:48:51;;;;;;;20.33;3.10;;;;;;;11.98;59.63;100329.91;4968211;28;112939;-68
2023/01/13 02:51:23;;;;;;;19.17;2.95;;;;;;;11.96;59.52;100322.97;4967319;28;124640;-68
2023/01/13 02:53:57;;;;;;;22.63;3.45;;;;;;;11.94;59.54;100324.88;4969094;28;123662;-68
2023/01/13 02:56:25;;;;;;;24.55;3.78;;;;;;;11.94;59.33;100314.25;4962507;28;113948;-68
2023/01/13 02:58:56;;;;;;;21.63;3.80;;;;;;;11.93;59.29;100317.88;4950305;28;113031;-68
2023/01/13 03:01:23;;;;;;;19.40;3.30;;;;;;;11.93;59.27;100307.25;4967043;28;124482;-68
2023/01/13 03:03:51;;;;;;;20.13;3.50;;;;;;;11.92;59.31;100305.53;4965990;28;124309;-68
2023/01/13 03:06:46;;;;;;;18.35;2.92;;;;;;;11.91;59.27;100314.44;4962586;28;113413;-68
2023/01/13 03:09:26;;;;;;;15.00;2.90;;;;;;;11.91;59.32;100314.44;4975175;28;113519;-68
2023/01/13 03:12:33;;;;;;;26.25;3.53;;;;;;;11.89;59.38;100295.94;4964329;28;124831;-68
2023/01/13 03:15:23;;;;;;;21.90;3.35;;;;;;;11.90;59.39;100307.41;4974821;28;96958;-68
2023/01/13 03:18:02;;;;;;;16.55;3.83;;;;;;;11.91;59.53;100293.22;4975760;28;113080;-68
2023/01/13 03:20:36;;;;;;;20.10;3.22;;;;;;;11.92;59.48;100294.91;4967098;28;113961;-68
2023/01/13 03:23:14;;;;;;;21.33;3.13;;;;;;;11.93;59.64;100288.66;4966520;28;123998;-68
2023/01/13 03:25:52;;;;;;;16.45;3.05;;;;;;;11.94;59.41;100277.09;4962756;28;123351;-68
2023/01/13 03:28:28;;;;;;;16.38;2.85;;;;;;;11.95;59.46;100282.31;4966680;28;115932;-68
2023/01/13 03:31:03;;;;;;;19.75;3.17;;;;;;;11.96;59.51;100269.88;4963004;28;114756;-68
2023/01/13 03:33:41;;;;;;;12.93;2.60;;;;;;;11.96;59.30;100264.59;4966722;28;124725;-68
2023/01/13 03:36:11;;;;;;;16.10;2.88;;;;;;;11.98;59.52;100273.31;4947228;28;123468;-68
2023/01/13 03:38:47;;;;;;;20.88;2.90;;;;;;;11.99;59.56;100281.19;4955491;28;114288;-68
2023/01/13 03:41:21;;;;;;;15.05;2.92;;;;;;;12.00;59.40;100258.16;4966383;28;114663;-68
2023/01/13 03:47:12;;;;;;;21.98;2.67;;;;;;;12.02;59.52;100253.63;4966875;28;124990;-68
2023/01/13 03:49:45;;;;;;;16.90;2.67;;;;;;;12.02;59.44;100249.16;4960993;28;114386;-68
2023/01/13 03:52:17;;;;;;;15.20;2.30;;;;;;;12.04;59.22;100257.03;4966864;28;115133;-68
2023/01/13 03:54:54;;;;;;;16.92;3.22;;;;;;;12.04;59.22;100259.69;4966463;28;124621;-68
2023/01/13 03:57:26;;;;;;;11.32;2.40;;;;;;;12.07;59.26;100262.13;4960062;28;123785;-68
2023/01/13 03:59:56;;;;;;;17.52;2.47;;;;;;;12.08;59.16;100269.16;4950113;28;114388;-68
2023/01/13 04:02:38;;;;;;;14.13;2.50;;;;;;;12.10;58.96;100261.97;4968453;28;113615;-69
2023/01/13 04:05:08;;;;;;;10.27;2.30;;;;;;;12.12;58.85;100265.38;4959661;28;124804;-68
2023/01/13 04:08:10;;;;;;;13.18;1.83;;;;;;;12.11;58.74;100269.00;4965347;28;123647;-69
2023/01/13 04:11:02;;;;;;;11.57;1.90;;;;;;;12.13;58.64;100267.09;4966667;28;115870;-68
2023/01/13 04:13:34;;;;;;;10.77;1.92;;;;;;;12.15;58.38;100259.88;4963732;28;114778;-68
2023/01/13 04:16:04;;;;;;;8.45;1.45;;;;;;;12.16;58.31;100272.19;4964574;28;124224;-68
2023/01/13 04:18:31;;;;;;;7.43;1.50;;;;;;;12.17;58.22;100258.00;4963171;28;124995;-68
2023/01/13 04:21:00;;;;;;;7.10;1.27;;;;;;;12.18;58.05;100270.31;4949315;28;114462;-68
2023/01/13 04:23:27;;;;;;;5.75;1.33;;;;;;;12.19;57.95;100287.94;4963258;28;116688;-68
2023/01/13 04:25:55;;;;;;;7.60;1.55;;;;;;;12.21;57.86;100291.38;4964927;28;123836;-68
2023/01/13 04:28:23;;;;;;;6.72;1.20;;;;;;;12.21;57.79;100291.38;4966539;28;123640;-68
2023/01/13 04:30:50;;;;;;;8.30;1.17;;;;;;;12.21;57.57;100290.53;4967242;28;114552;-68
2023/01/13 04:33:18;;;;;;;6.20;1.08;;;;;;;12.21;57.40;100295.84;4963509;28;114039;-68
2023/01/13 04:35:47;;;;;;;7.30;1.30;;;;;;;12.20;57.44;100300.25;4964182;28;125393;-68
2023/01/13 04:38:17;;;;;;;7.45;1.30;;;;;;;12.22;57.24;100309.03;4964570;28;123898;-68
2023/01/13 04:40:45;;;;;;;8.00;1.30;;;;;;;12.21;57.30;100288.72;4966602;28;114554;-68
2023/01/13 04:43:14;;;;;;;6.93;1.27;;;;;;;12.19;57.29;100287.94;4967226;28;113859;-68
2023/01/13 04:45:42;;;;;;;6.47;1.20;;;;;;;12.18;57.24;100296.84;4966268;28;123708;-68
2023/01/13 04:48:09;;;;;;;7.55;1.45;;;;;;;12.16;57.22;100296.09;4962477;28;124058;-67
2023/01/13 04:50:36;;;;;;;5.43;1.40;;;;;;;12.14;57.15;100295.34;4963087;28;113211;-68
2023/01/13 04:53:04;;;;;;;6.85;1.58;;;;;;;12.12;57.49;100297.22;4963910;28;113991;-67
2023/01/13 04:55:31;;;;;;;9.55;1.60;;;;;;;12.11;57.58;100300.84;4963094;28;124209;-67
2023/01/13 04:58:04;;;;;;;8.15;1.98;;;;;;;12.10;57.55;100293.81;4946389;28;124516;-68
2023/01/13 05:00:32;;;;;;;7.53;1.50;;;;;;;12.09;57.56;100292.09;4966635;28;114278;-67
2023/01/13 05:02:59;;;;;;;10.15;1.70;;;;;;;12.07;57.57;100289.56;4969130;28;113399;-67
2023/01/13 05:05:27;;;;;;;7.95;1.70;;;;;;;12.07;57.86;100272.75;4960135;28;124261;-68
2023/01/13 05:07:55;;;;;;;10.70;2.17;;;;;;;12.06;57.77;100268.41;4967721;28;125030;-68
2023/01/13 05:10:22;;;;;;;8.88;1.90;;;;;;;12.05;57.82;100274.66;4964163;28;116060;-67
2023/01/13 05:18:23;;;;;;;7.93;1.77;;;;;;;11.95;58.01;100284.13;4960288;28;124317;-67
2023/01/13 05:20:51;;;;;;;7.68;1.45;;;;;;;11.91;58.25;100287.91;4948846;28;114711;-67
2023/01/13 05:26:04;;;;;;;11.32;1.85;;;;;;;11.83;58.30;100286.53;4963885;28;124313;-67
2023/01/13 05:28:32;;;;;;;12.10;1.95;;;;;;;11.82;58.43;100300.72;4965338;28;124151;-67
2023/01/13 05:31:00;;;;;;;12.30;2.20;;;;;;;11.79;58.34;100279.69;4961584;28;114473;-67
2023/01/13 05:33:27;;;;;;;8.32;1.67;;;;;;;11.78;58.49;100283.28;4968139;28;114376;-67
2023/01/13 05:35:54;;;;;;;12.80;2.28;;;;;;;11.77;58.46;100280.72;4961360;28;124409;-67
2023/01/13 05:38:21;;;;;;;9.68;2.10;;;;;;;11.74;58.59;100271.16;4963273;28;124082;-67
2023/01/13 05:43:34;;;;;;;11.48;2.00;;;;;;;11.74;58.68;100287.06;4961015;28;113822;-67
2023/01/13 05:46:08;;;;;;;10.10;1.83;;;;;;;11.75;58.63;100307.34;4964021;28;123265;-67
2023/01/13 05:48:40;;;;;;;6.82;1.63;;;;;;;11.76;58.68;100311.72;4976806;28;122837;-68
2023/01/13 05:51:10;;;;;;;12.27;2.20;;;;;;;11.75;58.59;100309.97;4964021;28;114793;-68
2023/01/13 05:53:39;;;;;;;9.80;1.80;;;;;;;11.76;58.57;100290.47;4963891;28;113863;-68
2023/01/13 05:56:07;;;;;;;9.52;1.85;;;;;;;11.77;58.62;100302.81;4962153;28;123582;-68
2023/01/13 05:58:35;;;;;;;10.75;1.75;;;;;;;11.79;58.60;100322.16;4962086;28;123657;-67
2023/01/13 06:01:07;;;;;;;8.63;1.80;;;;;;;11.79;58.58;100316.84;4962764;28;115014;-68
2023/01/13 06:03:35;;;;;;;11.18;1.83;;;;;;;11.81;58.70;100320.25;4964285;28;114970;-67
2023/01/13 06:06:03;;;;;;;8.02;1.80;;;;;;;11.81;58.73;100314.06;4965707;28;124086;-67
2023/01/13 06:08:31;;;;;;;8.43;1.60;;;;;;;11.83;58.55;100318.38;4959175;28;124305;-67
2023/01/13 06:10:58;;;;;;;11.95;1.90;;;;;;;11.84;58.58;100313.91;4961543;28;113948;-67
2023/01/13 06:13:25;;;;;;;9.15;1.70;;;;;;;11.84;58.54;100325.38;4964573;28;114415;-67
2023/01/13 06:15:59;;;;;;;11.35;1.77;;;;;;;11.85;58.36;100332.41;4964042;28;124806;-67
2023/01/13 06:18:26;;;;;;;8.13;1.85;;;;;;;11.85;58.32;100332.41;4961639;28;122496;-67
2023/01/13 06:20:54;;;;;;;11.05;2.00;;;;;;;11.82;58.29;100337.88;4965866;28;114565;-67
2023/01/13 06:23:22;;;;;;;7.40;1.90;;;;;;;11.80;58.32;100329.16;4964582;28;114202;-67
2023/01/13 06:26:13;;;;;;;12.55;2.42;;;;;;;11.75;58.05;100325.91;4961428;28;123686;-68
2023/01/13 06:28:40;;;;;;;12.05;1.90;;;;;;;11.72;58.25;100331.41;4960497;28;123773;-67
2023/01/13 06:31:09;;;;;;;10.13;1.90;;;;;;;11.68;58.24;100335.19;4967226;28;114503;-68
2023/01/13 06:33:39;;;;;;;11.30;1.77;;;;;;;11.66;58.15;100331.78;4966423;28;114129;-68
2023/01/13 06:36:21;;;;;;;10.68;2.00;;;;;;;11.63;58.03;100322.16;4961572;28;124116;-67
2023/01/13 06:38:52;;;;;;;9.93;1.52;;;;;;;11.61;58.13;100328.53;4964898;28;124251;-68
2023/01/13 06:43:13;;;;;;;10.07;1.95;;;;;;;11.58;58.11;100323.38;4961899;28;114069;-67
2023/01/13 06:44:07;;;;;;;9.98;1.95;;;;;;;11.55;57.95;100323.56;4960041;28;113985;-67
2023/01/13 06:46:34;;;;;;;10.98;1.92;;;;;;;11.52;57.94;100318.44;4961434;28;123408;-67
2023/01/13 06:49:01;;;;;;;10.32;1.85;;;;;;;11.49;57.97;100325.63;4963116;28;123806;-67
2023/01/13 06:51:28;;;;;;;11.73;2.05;;;;;;;11.47;58.09;100330.16;4965697;28;115406;-67
2023/01/13 06:53:55;;;;;;;15.55;1.83;;;;;;;11.44;57.94;100327.69;4970840;28;115942;-67
2023/01/13 06:56:22;;;;;;;12.77;2.20;;;;;;;11.43;58.19;100317.16;4966941;28;124842;-67
2023/01/13 06:58:50;;;;;;;12.70;3.00;;;;;;;11.41;58.27;100332.31;4964356;28;124254;-67
2023/01/13 07:01:17;;;;;;;9.73;1.55;;;;;;;11.41;58.22;100332.31;4964555;28;114338;-67
2023/01/13 07:03:44;;;;;;;13.70;2.20;;;;;;;11.39;58.25;100329.72;4968348;28;113471;-67
2023/01/13 07:06:11;;;;;;;10.18;1.90;;;;;;;11.38;58.15;100324.53;4973775;28;123378;-67
2023/01/13 07:08:38;;;;;;;12.80;2.22;;;;;;;11.37;58.07;100323.66;4977274;28;124066;-67
2023/01/13 07:11:05;;;;;;;10.68;2.38;;;;;;;11.38;58.10;100321.88;4972240;28;113411;-66
2023/01/13 07:16:23;;;;;;;11.65;2.13;;;;;;;11.34;58.21;100337.13;4968391;28;123988;-68
2023/01/13 07:18:50;;;;;;;13.95;2.30;;;;;;;11.33;58.05;100340.69;4970620;28;123211;-68
2023/01/13 07:21:18;;;;;;;13.35;1.92;;;;;;;11.33;58.21;100340.69;4974233;28;114545;-68
2023/01/13 07:23:47;;;;;;;16.60;2.28;;;;;;;11.33;57.96;100340.69;4970069;28;114516;-68
2023/01/13 07:26:14;;;;;;;11.48;2.03;;;;;;;11.34;58.16;100342.41;4963064;28;124872;-68
2023/01/13 07:28:41;;;;;;;14.40;1.75;;;;;;;11.34;58.09;100353.03;4967755;28;124646;-68
2023/01/13 07:31:14;;;;;;;11.88;2.28;;;;;;;11.37;57.97;100346.69;4972948;28;113923;-69
2023/01/13 07:33:42;;;;;;;11.90;2.28;;;;;;;11.38;57.98;100343.09;4969238;28;113917;-69
2023/01/13 07:36:10;;;;;;;12.23;2.03;;;;;;;11.39;58.00;100356.25;4961853;28;124180;-70
2023/01/13 07:38:39;;;;;;;13.38;1.85;;;;;;;11.41;58.11;100343.75;4972447;28;124574;-69
2023/01/13 07:43:59;;;;;;;7.55;1.35;;;;;;;11.43;57.90;100357.81;4961694;28;116148;-70
2023/01/13 07:46:26;;;;;;;14.50;1.75;;;;;;;11.42;57.87;100358.72;4967724;28;124559;-70
2023/01/13 07:48:53;;;;;;;8.18;1.55;;;;;;;11.42;57.97;100360.53;4963989;28;124144;-70
2023/01/13 07:51:20;;;;;;;6.40;1.52;;;;;;;11.42;57.73;100353.44;4969337;28;114446;-69
2023/01/13 07:53:48;;;;;;;7.97;1.23;;;;;;;11.42;57.87;100356.09;4969631;28;113892;-70
2023/01/13 07:56:15;;;;;;;11.02;1.60;;;;;;;11.41;57.92;100370.28;4967350;28;125167;-70
2023/01/13 07:58:43;;;;;;;11.30;2.03;;;;;;;11.41;57.61;100364.97;4965505;28;124739;-70
2023/01/13 08:01:12;;;;;;;9.63;2.05;;;;;;;11.40;57.63;100363.28;4960680;28;116158;-70
2023/01/13 08:03:40;;;;;;;7.30;1.48;;;;;;;11.39;57.76;100372.16;4970972;28;114076;-70
2023/01/13 08:06:08;;;;;;;6.80;1.52;;;;;;;11.38;57.78;100354.56;4966616;28;122049;-70
2023/01/13 08:08:36;;;;;;;11.32;1.88;;;;;;;11.39;57.63;100366.84;4966369;28;123913;-70
2023/01/13 08:11:06;;;;;;;9.57;1.50;;;;;;;11.39;57.41;100358.91;4952795;28;113470;-70
2023/01/13 08:13:33;;;;;;;8.20;1.60;;;;;;;11.41;57.52;100375.56;4971263;28;114213;-69
2023/01/13 08:16:03;;;;;;;10.02;1.75;;;;;;;11.41;57.73;100370.28;4977651;28;121870;-70
2023/01/13 08:18:31;;;;;;;6.88;1.48;;;;;;;11.41;57.49;100367.63;4975759;28;123713;-70
2023/01/13 08:21:08;;;;;;;12.48;1.60;;;;;;;11.42;57.50;100368.50;4964460;28;113007;-71
2023/01/13 08:23:36;;;;;;;9.70;1.50;;;;;;;11.42;57.64;100382.59;4966984;28;113617;-70
2023/01/13 08:26:06;;;;;;;11.55;1.75;;;;;;;11.43;57.49;100379.03;4967026;28;124321;-70
2023/01/13 08:28:33;;;;;;;10.75;1.55;;;;;;;11.44;57.58;100385.16;4962597;28;124055;-71
2023/01/13 08:31:06;;;;;;;11.50;1.15;;;;;;;11.44;57.45;100386.03;4959794;28;114723;-70
2023/01/13 08:33:34;;;;;;;6.88;1.50;;;;;;;11.45;57.51;100382.44;4948911;28;116991;-71
2023/01/13 08:36:07;;;;;;;11.63;1.98;;;;;;;11.45;57.29;100382.44;4947606;28;124299;-71
2023/01/13 08:38:35;;;;;;;17.27;2.35;;;;;;;11.47;57.49;100380.56;4935358;28;123019;-71
2023/01/13 08:41:14;;;;;;;10.82;1.55;;;;;;;11.47;57.42;100396.47;4949286;28;114717;-70
2023/01/13 08:43:42;;;;;;;7.63;1.65;;;;;;;11.50;57.69;100401.56;4946229;28;114317;-71
2023/01/13 08:46:09;;;;;;;16.48;1.90;;;;;;;11.50;57.50;100396.28;4954319;28;123126;-71
2023/01/13 08:48:36;;;;;;;10.80;1.80;;;;;;;11.52;57.64;100398.84;4959066;28;122770;-70
2023/01/13 08:51:06;;;;;;;9.93;2.28;;;;;;;11.54;57.58;100399.59;4951454;28;115016;-71
2023/01/13 08:53:33;;;;;;;9.82;1.98;;;;;;;11.55;57.46;100392.53;4960665;28;114190;-70
2023/01/13 08:56:01;;;;;;;6.45;1.17;;;;;;;11.56;57.57;100411.00;4959504;28;123345;-70
2023/01/13 08:58:28;;;;;;;9.20;1.65;;;;;;;11.57;57.55;100395.94;4964366;28;123296;-68
2023/01/13 09:00:55;;;;;;;10.02;1.70;;;;;;;11.59;57.81;100394.06;4949516;28;114552;-71
2023/01/13 09:03:22;;;;;;;10.52;2.00;;;;;;;11.61;57.66;100402.78;4960661;28;114210;-71
2023/01/13 09:05:49;;;;;;;8.63;1.45;;;;;;;11.62;57.71;100404.47;4960129;28;123850;-68
2023/01/13 09:08:16;;;;;;;9.43;1.73;;;;;;;11.64;57.61;100418.50;4962795;28;124262;-68
2023/01/13 09:10:44;;;;;;;12.05;1.70;;;;;;;11.66;57.56;100408.69;4949546;28;114326;-68
2023/01/13 09:13:12;;;;;;;9.43;2.20;;;;;;;11.67;57.62;100413.88;4954697;28;113758;-69
2023/01/13 09:15:42;;;;;;;11.73;2.22;;;;;;;11.70;57.60;100402.28;4950818;28;124080;-69
2023/01/13 09:18:10;;;;;;;11.68;2.10;;;;;;;11.74;57.62;100405.59;4957355;28;122131;-69
2023/01/13 09:20:38;;;;;;;10.55;1.80;;;;;;;11.76;57.62;100417.84;4955189;28;115030;-69
2023/01/13 09:23:06;;;;;;;11.80;2.00;;;;;;;11.79;57.80;100417.66;4941933;28;115426;-69
2023/01/13 09:25:37;;;;;;;16.38;1.77;;;;;;;11.83;57.62;100424.50;4943089;28;123869;-69
2023/01/13 09:28:04;;;;;;;8.90;2.00;;;;;;;11.88;57.74;100433.06;4948270;28;124484;-71
2023/01/13 09:30:32;;;;;;;8.85;2.08;;;;;;;11.95;57.74;100432.75;4948438;28;114105;-70
2023/01/13 09:35:45;;;;;;;8.50;1.80;;;;;;;12.08;57.72;100433.75;4960865;28;124253;-69
2023/01/13 09:38:12;;;;;;;14.65;2.10;;;;;;;12.14;57.64;100440.50;4947594;28;123658;-69
2023/01/13 09:40:42;;;;;;;11.57;1.60;;;;;;;12.16;57.51;100436.78;4955132;28;114716;-69
2023/01/13 09:46:46;;;;;;;12.85;2.42;;;;;;;12.24;57.42;100445.19;4947356;28;123691;-69
2023/01/13 09:49:22;;;;;;;13.27;2.70;;;;;;;12.28;57.19;100440.53;4958925;28;124162;-70
2023/01/13 09:51:55;;;;;;;19.73;2.63;;;;;;;12.26;57.08;100456.56;4949180;28;114519;-69
2023/01/13 09:55:04;;;;;;;14.82;2.97;;;;;;;12.25;57.11;100446.88;4947203;28;115044;-70
2023/01/13 09:57:35;;;;;;;13.82;2.40;;;;;;;12.25;57.17;100452.19;4965258;28;123813;-69
2023/01/13 10:00:11;;;;;;;10.43;2.47;;;;;;;12.24;56.99;100461.13;4955584;28;123875;-69
2023/01/13 10:02:38;;;;;;;;;;;;;;;12.23;57.21;100470.00;4955981;28;114110;-70
2023/01/13 10:05:13;;;;;;;10.10;2.03;;;;;;;12.25;57.19;100462.81;4950584;28;112949;-69
2023/01/13 10:07:48;;;;;;;14.93;2.47;;;;;;;12.26;57.01;100461.88;4958792;28;125199;-69
2023/01/13 10:10:28;;;;;;;15.60;2.13;;;;;;;12.29;56.94;100460.00;4962528;28;124556;-69
2023/01/13 10:13:13;;;;;;;20.00;3.00;;;;;;;12.32;57.04;100473.06;4935545;28;115441;-70
2023/01/13 10:15:50;;;;;;;14.63;2.28;;;;;;;12.32;57.13;100486.34;4934332;28;114832;-69
2023/01/13 10:18:27;;;;;;;13.48;2.88;;;;;;;12.34;57.03;100487.09;4945923;28;124747;-69
2023/01/13 10:21:23;;;;;;;12.60;2.67;;;;;;;12.35;57.02;100483.53;4945809;28;124702;-70
2023/01/13 10:24:12;;;;;;;15.48;2.50;;;;;;;12.34;57.05;100484.44;4945138;28;114549;-69
2023/01/13 10:27:09;;;;;;;13.93;2.72;;;;;;;12.32;57.16;100495.19;4950206;28;113011;-70
2023/01/13 10:29:36;;;;;;;15.82;2.88;;;;;;;12.32;57.22;100494.31;4949965;28;124557;-70
2023/01/13 10:32:03;;;;;;;10.48;2.80;;;;;;;12.33;57.16;100496.03;4952441;28;124096;-69
2023/01/13 10:34:43;;;;;;;16.23;2.83;;;;;;;12.31;57.21;100509.41;4951335;28;113465;-70
2023/01/13 10:37:19;;;;;;;13.57;2.67;;;;;;;12.29;57.23;100505.13;4951939;28;114803;-70
2023/01/13 10:39:48;;;;;;;18.40;2.72;;;;;;;12.24;57.34;100514.22;4957392;28;124811;-69
2023/01/13 10:42:20;;;;;;;17.70;2.67;;;;;;;12.21;57.40;100510.88;4969618;28;123690;-70
2023/01/13 10:44:51;;;;;;;13.13;2.65;;;;;;;12.16;57.50;100513.78;4962869;28;114574;-70
2023/01/13 10:47:30;;;;;;;16.30;2.60;;;;;;;12.13;57.69;100521.06;4933625;28;113597;-71
2023/01/13 10:50:05;;;;;;;17.88;2.65;;;;;;;12.09;57.57;100531.00;4960188;28;125122;-69
2023/01/13 10:52:53;;;;;;;13.68;2.55;;;;;;;12.03;57.82;100531.34;4960049;28;123868;-69
2023/01/13 10:55:33;;;;;;;14.27;2.47;;;;;;;11.97;57.79;100534.34;4953527;28;114156;-70
2023/01/13 10:58:16;;;;;;;17.67;2.80;;;;;;;11.91;58.00;100553.28;4958919;28;114015;-68
2023/01/13 11:00:44;;;;;;;17.35;2.70;;;;;;;11.88;58.21;100565.75;4949163;28;124833;-68
2023/01/13 11:03:15;;;;;;;13.10;2.45;;;;;;;11.84;58.30;100558.03;4951476;28;123601;-69
2023/01/13 11:05:52;;;;;;;14.18;2.47;;;;;;;11.81;58.20;100561.72;4948670;28;116204;-68
2023/01/13 11:08:24;;;;;;;13.90;2.63;;;;;;;11.79;58.60;100552.09;4947460;28;113929;-68
2023/01/13 11:10:57;;;;;;;14.50;2.50;;;;;;;11.77;58.56;100557.53;4932031;28;124024;-70
2023/01/13 11:13:30;;;;;;;11.55;2.55;;;;;;;11.77;58.47;100560.19;4945870;28;123984;-70
2023/01/13 11:16:18;;;;;;;18.95;3.08;;;;;;;11.76;58.55;100561.09;4960990;28;113640;-69
2023/01/13 11:19:00;;;;;;;13.98;3.05;;;;;;;11.76;58.65;100571.72;4950748;28;112466;-70
2023/01/13 11:21:35;;;;;;;14.23;3.50;;;;;;;11.74;58.61;100556.81;4950577;28;123317;-70
2023/01/13 11:24:14;;;;;;;14.82;2.92;;;;;;;11.73;58.79;100571.88;4955463;28;122844;-70
2023/01/13 11:26:46;;;;;;;10.73;3.08;;;;;;;11.73;58.77;100577.19;4953325;28;113194;-69
2023/01/13 11:29:29;;;;;;;13.90;2.45;;;;;;;11.72;58.91;100564.88;4970046;28;113379;-69
2023/01/13 11:32:09;;;;;;;15.10;3.05;;;;;;;11.72;59.02;100564.88;4960867;28;123761;-70
2023/01/13 11:34:40;;;;;;;16.02;2.45;;;;;;;11.73;59.10;100566.56;4956004;28;123742;-69
2023/01/13 11:37:24;;;;;;;16.80;2.97;;;;;;;11.73;58.88;100571.03;4950695;28;113929;-69
2023/01/13 11:40:16;;;;;;;19.83;2.78;;;;;;;11.74;58.98;100576.25;4952672;28;115293;-70
2023/01/13 11:42:53;;;;;;;12.65;2.58;;;;;;;11.76;59.04;100560.25;4966013;28;123961;-69
2023/01/13 11:45:23;;;;;;;14.93;2.85;;;;;;;11.79;58.92;100566.25;4962280;28;123787;-69
2023/01/13 11:47:56;;;;;;;18.05;3.05;;;;;;;11.83;59.03;100554.53;4967954;28;114086;-70
2023/01/13 11:50:47;;;;;;;17.98;2.90;;;;;;;11.90;59.17;100556.88;4963760;28;114387;-69
2023/01/13 11:53:43;;;;;;;20.73;2.92;;;;;;;11.96;59.19;100561.81;4964766;28;124274;-69
2023/01/13 11:56:23;;;;;;;16.63;2.72;;;;;;;12.03;59.20;100552.59;4963962;28;124620;-69
2023/01/13 11:59:40;;;;;;;14.20;2.65;;;;;;;12.11;59.23;100555.69;4939788;28;114663;-69
2023/01/13 12:02:42;;;;;;;13.63;2.53;;;;;;;12.17;59.08;100560.63;4951343;28;115498;-70
2023/01/13 12:05:22;;;;;;;15.23;3.05;;;;;;;12.24;59.02;100556.72;4947488;28;124291;-69
2023/01/13 12:08:17;;;;;;;12.52;2.05;;;;;;;12.34;58.95;100561.47;4967727;28;123959;-69
2023/01/13 12:11:21;;;;;;;15.40;1.98;;;;;;;12.41;58.96;100562.84;4967024;28;114377;-70
2023/01/13 12:14:05;;;;;;;13.88;2.05;;;;;;;12.46;58.82;100571.41;4957061;28;112889;-69
2023/01/13 12:16:32;;;;;;;12.05;1.75;;;;;;;12.51;58.59;100595.91;4965877;28;124445;-69